sensor_id;sensor_type;location;lat;lon;timestamp;P1;durP1;ratioP1;P2;durP2;ratioP2
66542;SDS011;53395;37.360;-122.046;2024-03-23T00:54:49;3.40;;;0.70;;
66542;SDS011;53395;37.360;-122.046;2024-03-23T00:57:33;2.15;;;0.50;;
66542;SDS011;53395;37.360;-122.046;2024-03-23T01:00:18;2.83;;;0.73;;
66542;SDS011;53395;37.360;-122.046;2024-03-23T01:03:03;2.90;;;0.45;;
66542;SDS011;53395;37.360;-122.046;2024-03-23T01:05:48;1.95;;;0.63;;
66542;SDS011;53395;37.360;-122.046;2024-03-23T01:08:33;4.20;;;0.60;;
66542;SDS011;53395;37.360;-122.046;2024-03-23T01:11:18;1.55;;;0.35;;
66542;SDS011;53395;37.360;-122.046;2024-03-23T01:14:03;4.68;;;0.70;;
66542;SDS011;53395;37.360;-122.046;2024-03-23T01:16:48;3.60;;;0.60;;
66542;SDS011;53395;37.360;-122.046;2024-03-23T01:19:33;3.47;;;0.70;;
66542;SDS011;53395;37.360;-122.046;2024-03-23T01:22:17;2.75;;;0.68;;
66542;SDS011;53395;37.360;-122.046;2024-03-23T01:25:02;3.13;;;0.60;;
66542;SDS011;53395;37.360;-122.046;2024-03-23T01:27:47;3.95;;;0.50;;
66542;SDS011;53395;37.360;-122.046;2024-03-23T01:30:33;3.95;;;0.68;;
66542;SDS011;53395;37.360;-122.046;2024-03-23T01:33:19;2.63;;;0.73;;
66542;SDS011;53395;37.360;-122.046;2024-03-23T01:36:04;2.08;;;0.43;;
66542;SDS011;53395;37.360;-122.046;2024-03-23T01:38:49;3.60;;;0.60;;
66542;SDS011;53395;37.360;-122.046;2024-03-23T01:41:35;3.42;;;0.63;;
66542;SDS011;53395;37.360;-122.046;2024-03-23T01:44:22;3.20;;;0.68;;
66542;SDS011;53395;37.360;-122.046;2024-03-23T01:47:07;3.78;;;0.68;;
66542;SDS011;53395;37.360;-122.046;2024-03-23T01:49:53;3.78;;;0.52;;
66542;SDS011;53395;37.360;-122.046;2024-03-23T01:55:23;1.50;;;0.40;;
66542;SDS011;53395;37.360;-122.046;2024-03-23T01:58:08;2.95;;;0.40;;
66542;SDS011;53395;37.360;-122.046;2024-03-23T02:00:53;2.60;;;0.60;;
66542;SDS011;53395;37.360;-122.046;2024-03-23T02:03:38;6.03;;;0.68;;
66542;SDS011;53395;37.360;-122.046;2024-03-23T02:06:25;3.25;;;0.63;;
66542;SDS011;53395;37.360;-122.046;2024-03-23T02:09:11;1.02;;;0.40;;
66542;SDS011;53395;37.360;-122.046;2024-03-23T02:11:56;3.30;;;0.50;;
66542;SDS011;53395;37.360;-122.046;2024-03-23T02:14:41;2.25;;;0.40;;
66542;SDS011;53395;37.360;-122.046;2024-03-23T02:17:26;2.45;;;0.50;;
66542;SDS011;53395;37.360;-122.046;2024-03-23T02:20:12;2.60;;;0.32;;
66542;SDS011;53395;37.360;-122.046;2024-03-23T02:22:57;3.25;;;0.45;;
66542;SDS011;53395;37.360;-122.046;2024-03-23T02:25:42;3.20;;;0.60;;
66542;SDS011;53395;37.360;-122.046;2024-03-23T02:28:26;2.08;;;0.40;;
66542;SDS011;53395;37.360;-122.046;2024-03-23T02:31:11;2.85;;;0.50;;
66542;SDS011;53395;37.360;-122.046;2024-03-23T02:36:41;2.38;;;0.52;;
66542;SDS011;53395;37.360;-122.046;2024-03-23T02:39:26;3.35;;;0.70;;
66542;SDS011;53395;37.360;-122.046;2024-03-23T02:42:11;2.85;;;0.40;;
66542;SDS011;53395;37.360;-122.046;2024-03-23T02:44:56;3.60;;;0.88;;
66542;SDS011;53395;37.360;-122.046;2024-03-23T02:47:42;3.13;;;0.40;;
66542;SDS011;53395;37.360;-122.046;2024-03-23T02:50:27;2.30;;;0.50;;
66542;SDS011;53395;37.360;-122.046;2024-03-23T02:53:12;3.22;;;0.57;;
66542;SDS011;53395;37.360;-122.046;2024-03-23T02:56:00;4.20;;;0.75;;
66542;SDS011;53395;37.360;-122.046;2024-03-23T02:58:44;4.05;;;0.60;;
66542;SDS011;53395;37.360;-122.046;2024-03-23T03:01:29;2.63;;;0.50;;
66542;SDS011;53395;37.360;-122.046;2024-03-23T03:04:14;3.40;;;0.60;;
66542;SDS011;53395;37.360;-122.046;2024-03-23T03:06:59;2.55;;;0.43;;
66542;SDS011;53395;37.360;-122.046;2024-03-23T03:09:44;2.60;;;0.50;;
66542;SDS011;53395;37.360;-122.046;2024-03-23T03:12:29;3.35;;;0.50;;
66542;SDS011;53395;37.360;-122.046;2024-03-23T03:15:14;2.40;;;0.68;;
66542;SDS011;53395;37.360;-122.046;2024-03-23T03:17:59;2.65;;;0.40;;
66542;SDS011;53395;37.360;-122.046;2024-03-23T03:20:43;1.98;;;0.40;;
66542;SDS011;53395;37.360;-122.046;2024-03-23T03:23:28;2.95;;;0.80;;
66542;SDS011;53395;37.360;-122.046;2024-03-23T03:26:13;1.85;;;0.40;;
66542;SDS011;53395;37.360;-122.046;2024-03-23T03:28:58;2.47;;;0.55;;
66542;SDS011;53395;37.360;-122.046;2024-03-23T03:31:43;1.88;;;0.70;;
66542;SDS011;53395;37.360;-122.046;2024-03-23T03:34:28;2.80;;;0.50;;
66542;SDS011;53395;37.360;-122.046;2024-03-23T03:37:13;5.25;;;0.68;;
66542;SDS011;53395;37.360;-122.046;2024-03-23T03:39:58;4.35;;;0.50;;
66542;SDS011;53395;37.360;-122.046;2024-03-23T03:42:43;3.65;;;0.75;;
66542;SDS011;53395;37.360;-122.046;2024-03-23T03:45:29;2.47;;;0.40;;
66542;SDS011;53395;37.360;-122.046;2024-03-23T03:48:13;4.00;;;0.77;;
66542;SDS011;53395;37.360;-122.046;2024-03-23T03:50:58;3.33;;;0.63;;
66542;SDS011;53395;37.360;-122.046;2024-03-23T03:53:43;5.07;;;0.70;;
66542;SDS011;53395;37.360;-122.046;2024-03-23T03:56:27;4.90;;;0.50;;
66542;SDS011;53395;37.360;-122.046;2024-03-23T03:59:12;1.63;;;0.20;;
66542;SDS011;53395;37.360;-122.046;2024-03-23T04:01:58;2.78;;;0.30;;
66542;SDS011;53395;37.360;-122.046;2024-03-23T04:04:42;2.03;;;0.30;;
66542;SDS011;53395;37.360;-122.046;2024-03-23T04:07:27;2.35;;;0.32;;
66542;SDS011;53395;37.360;-122.046;2024-03-23T04:10:12;0.68;;;0.20;;
66542;SDS011;53395;37.360;-122.046;2024-03-23T04:12:57;1.55;;;0.30;;
66542;SDS011;53395;37.360;-122.046;2024-03-23T04:15:42;2.35;;;0.40;;
66542;SDS011;53395;37.360;-122.046;2024-03-23T04:18:27;1.92;;;0.30;;
66542;SDS011;53395;37.360;-122.046;2024-03-23T04:21:12;2.25;;;0.35;;
66542;SDS011;53395;37.360;-122.046;2024-03-23T04:23:57;4.80;;;0.57;;
66542;SDS011;53395;37.360;-122.046;2024-03-23T04:26:42;2.17;;;0.60;;
66542;SDS011;53395;37.360;-122.046;2024-03-23T04:29:27;2.45;;;0.50;;
66542;SDS011;53395;37.360;-122.046;2024-03-23T04:32:12;4.38;;;0.50;;
66542;SDS011;53395;37.360;-122.046;2024-03-23T04:34:57;3.22;;;0.60;;
66542;SDS011;53395;37.360;-122.046;2024-03-23T04:37:42;3.00;;;0.40;;
66542;SDS011;53395;37.360;-122.046;2024-03-23T04:40:27;2.13;;;0.50;;
66542;SDS011;53395;37.360;-122.046;2024-03-23T04:43:12;4.15;;;0.70;;
66542;SDS011;53395;37.360;-122.046;2024-03-23T04:45:57;4.45;;;0.57;;
66542;SDS011;53395;37.360;-122.046;2024-03-23T04:48:42;2.28;;;0.50;;
66542;SDS011;53395;37.360;-122.046;2024-03-23T04:51:28;2.35;;;0.45;;
66542;SDS011;53395;37.360;-122.046;2024-03-23T04:54:21;3.40;;;0.52;;
66542;SDS011;53395;37.360;-122.046;2024-03-23T04:57:06;3.30;;;0.50;;
66542;SDS011;53395;37.360;-122.046;2024-03-23T04:59:51;1.88;;;0.57;;
66542;SDS011;53395;37.360;-122.046;2024-03-23T05:02:36;1.77;;;0.40;;
66542;SDS011;53395;37.360;-122.046;2024-03-23T05:05:21;4.22;;;0.47;;
66542;SDS011;53395;37.360;-122.046;2024-03-23T05:08:06;1.42;;;0.50;;
66542;SDS011;53395;37.360;-122.046;2024-03-23T05:10:51;2.55;;;0.80;;
66542;SDS011;53395;37.360;-122.046;2024-03-23T05:13:35;4.25;;;0.70;;
66542;SDS011;53395;37.360;-122.046;2024-03-23T05:16:20;3.15;;;0.60;;
66542;SDS011;53395;37.360;-122.046;2024-03-23T05:19:05;2.40;;;0.60;;
66542;SDS011;53395;37.360;-122.046;2024-03-23T05:21:50;2.58;;;0.55;;
66542;SDS011;53395;37.360;-122.046;2024-03-23T05:24:37;2.55;;;0.60;;
66542;SDS011;53395;37.360;-122.046;2024-03-23T05:27:21;2.75;;;0.32;;
66542;SDS011;53395;37.360;-122.046;2024-03-23T05:30:07;3.13;;;0.50;;
66542;SDS011;53395;37.360;-122.046;2024-03-23T05:32:53;5.88;;;0.80;;
66542;SDS011;53395;37.360;-122.046;2024-03-23T05:35:38;3.00;;;0.55;;
66542;SDS011;53395;37.360;-122.046;2024-03-23T05:38:23;2.78;;;0.63;;
66542;SDS011;53395;37.360;-122.046;2024-03-23T05:41:08;4.30;;;0.70;;
66542;SDS011;53395;37.360;-122.046;2024-03-23T05:43:52;3.08;;;0.65;;
66542;SDS011;53395;37.360;-122.046;2024-03-23T05:46:37;2.90;;;0.60;;
66542;SDS011;53395;37.360;-122.046;2024-03-23T05:49:22;1.23;;;0.50;;
66542;SDS011;53395;37.360;-122.046;2024-03-23T05:52:09;2.40;;;0.50;;
66542;SDS011;53395;37.360;-122.046;2024-03-23T05:54:54;1.67;;;0.50;;
66542;SDS011;53395;37.360;-122.046;2024-03-23T05:57:39;3.13;;;0.73;;
66542;SDS011;53395;37.360;-122.046;2024-03-23T06:00:24;2.28;;;0.30;;
66542;SDS011;53395;37.360;-122.046;2024-03-23T06:03:10;4.45;;;0.70;;
66542;SDS011;53395;37.360;-122.046;2024-03-23T06:05:55;3.95;;;0.57;;
66542;SDS011;53395;37.360;-122.046;2024-03-23T06:08:40;2.42;;;0.55;;
66542;SDS011;53395;37.360;-122.046;2024-03-23T06:11:25;1.52;;;0.40;;
66542;SDS011;53395;37.360;-122.046;2024-03-23T06:14:10;2.67;;;0.50;;
66542;SDS011;53395;37.360;-122.046;2024-03-23T06:16:55;3.00;;;0.65;;
66542;SDS011;53395;37.360;-122.046;2024-03-23T06:19:40;1.58;;;0.60;;
66542;SDS011;53395;37.360;-122.046;2024-03-23T06:22:24;3.58;;;0.50;;
66542;SDS011;53395;37.360;-122.046;2024-03-23T06:25:09;2.55;;;0.70;;
66542;SDS011;53395;37.360;-122.046;2024-03-23T06:27:56;2.60;;;0.50;;
66542;SDS011;53395;37.360;-122.046;2024-03-23T06:30:42;5.60;;;0.60;;
66542;SDS011;53395;37.360;-122.046;2024-03-23T06:33:27;5.28;;;0.55;;
66542;SDS011;53395;37.360;-122.046;2024-03-23T06:38:57;4.03;;;0.80;;
66542;SDS011;53395;37.360;-122.046;2024-03-23T06:41:42;5.25;;;0.65;;
66542;SDS011;53395;37.360;-122.046;2024-03-23T06:44:35;3.60;;;0.55;;
66542;SDS011;53395;37.360;-122.046;2024-03-23T06:47:20;5.00;;;0.80;;
66542;SDS011;53395;37.360;-122.046;2024-03-23T06:50:05;3.50;;;0.68;;
66542;SDS011;53395;37.360;-122.046;2024-03-23T06:52:50;5.47;;;0.70;;
66542;SDS011;53395;37.360;-122.046;2024-03-23T06:55:35;3.92;;;0.65;;
66542;SDS011;53395;37.360;-122.046;2024-03-23T06:58:23;3.97;;;0.70;;
66542;SDS011;53395;37.360;-122.046;2024-03-23T07:01:09;4.63;;;0.88;;
66542;SDS011;53395;37.360;-122.046;2024-03-23T07:03:54;10.18;;;1.10;;
66542;SDS011;53395;37.360;-122.046;2024-03-23T07:09:28;5.60;;;0.80;;
66542;SDS011;53395;37.360;-122.046;2024-03-23T07:12:13;2.42;;;0.57;;
66542;SDS011;53395;37.360;-122.046;2024-03-23T07:14:58;3.83;;;0.90;;
66542;SDS011;53395;37.360;-122.046;2024-03-23T07:17:46;5.15;;;0.77;;
66542;SDS011;53395;37.360;-122.046;2024-03-23T07:20:31;4.75;;;0.90;;
66542;SDS011;53395;37.360;-122.046;2024-03-23T07:23:16;5.43;;;0.68;;
66542;SDS011;53395;37.360;-122.046;2024-03-23T07:26:04;4.68;;;0.85;;
66542;SDS011;53395;37.360;-122.046;2024-03-23T07:28:50;6.43;;;0.80;;
66542;SDS011;53395;37.360;-122.046;2024-03-23T07:31:36;3.92;;;0.70;;
66542;SDS011;53395;37.360;-122.046;2024-03-23T07:34:22;4.63;;;0.80;;
66542;SDS011;53395;37.360;-122.046;2024-03-23T07:37:07;4.05;;;0.80;;
66542;SDS011;53395;37.360;-122.046;2024-03-23T07:39:52;5.03;;;0.77;;
66542;SDS011;53395;37.360;-122.046;2024-03-23T07:42:37;5.22;;;0.70;;
66542;SDS011;53395;37.360;-122.046;2024-03-23T07:45:22;6.03;;;0.80;;
66542;SDS011;53395;37.360;-122.046;2024-03-23T07:48:07;3.42;;;0.70;;
66542;SDS011;53395;37.360;-122.046;2024-03-23T07:53:49;5.50;;;0.88;;
66542;SDS011;53395;37.360;-122.046;2024-03-23T07:56:34;5.10;;;0.55;;
66542;SDS011;53395;37.360;-122.046;2024-03-23T07:59:19;5.40;;;0.90;;
66542;SDS011;53395;37.360;-122.046;2024-03-23T08:02:04;5.05;;;0.90;;
66542;SDS011;53395;37.360;-122.046;2024-03-23T08:04:49;4.32;;;0.70;;
66542;SDS011;53395;37.360;-122.046;2024-03-23T08:07:34;4.82;;;0.50;;
66542;SDS011;53395;37.360;-122.046;2024-03-23T08:10:19;3.90;;;0.65;;
66542;SDS011;53395;37.360;-122.046;2024-03-23T08:13:04;4.50;;;0.93;;
66542;SDS011;53395;37.360;-122.046;2024-03-23T08:15:49;4.45;;;0.65;;
66542;SDS011;53395;37.360;-122.046;2024-03-23T08:18:34;5.07;;;1.08;;
66542;SDS011;53395;37.360;-122.046;2024-03-23T08:21:19;5.68;;;0.73;;
66542;SDS011;53395;37.360;-122.046;2024-03-23T08:24:04;4.72;;;0.90;;
66542;SDS011;53395;37.360;-122.046;2024-03-23T08:26:49;2.83;;;0.60;;
66542;SDS011;53395;37.360;-122.046;2024-03-23T08:29:34;3.50;;;0.60;;
66542;SDS011;53395;37.360;-122.046;2024-03-23T08:32:19;3.78;;;0.77;;
66542;SDS011;53395;37.360;-122.046;2024-03-23T08:35:04;4.82;;;0.90;;
66542;SDS011;53395;37.360;-122.046;2024-03-23T08:37:49;4.35;;;0.75;;
66542;SDS011;53395;37.360;-122.046;2024-03-23T08:40:34;3.60;;;0.70;;
66542;SDS011;53395;37.360;-122.046;2024-03-23T08:43:19;4.40;;;0.73;;
66542;SDS011;53395;37.360;-122.046;2024-03-23T08:46:04;2.80;;;0.50;;
66542;SDS011;53395;37.360;-122.046;2024-03-23T08:48:56;4.38;;;0.73;;
66542;SDS011;53395;37.360;-122.046;2024-03-23T08:51:41;6.57;;;0.82;;
66542;SDS011;53395;37.360;-122.046;2024-03-23T08:54:26;5.85;;;0.93;;
66542;SDS011;53395;37.360;-122.046;2024-03-23T08:57:12;7.40;;;1.13;;
66542;SDS011;53395;37.360;-122.046;2024-03-23T08:59:57;2.90;;;0.47;;
66542;SDS011;53395;37.360;-122.046;2024-03-23T09:02:43;7.35;;;1.10;;
66542;SDS011;53395;37.360;-122.046;2024-03-23T09:05:32;4.50;;;0.80;;
66542;SDS011;53395;37.360;-122.046;2024-03-23T09:08:23;5.43;;;0.80;;
66542;SDS011;53395;37.360;-122.046;2024-03-23T09:11:09;4.80;;;0.65;;
66542;SDS011;53395;37.360;-122.046;2024-03-23T09:13:54;4.45;;;0.70;;
66542;SDS011;53395;37.360;-122.046;2024-03-23T09:16:39;4.47;;;1.00;;
66542;SDS011;53395;37.360;-122.046;2024-03-23T09:19:26;4.45;;;0.95;;
66542;SDS011;53395;37.360;-122.046;2024-03-23T09:22:12;7.63;;;1.08;;
66542;SDS011;53395;37.360;-122.046;2024-03-23T09:24:57;5.43;;;0.73;;
66542;SDS011;53395;37.360;-122.046;2024-03-23T09:27:42;4.60;;;0.70;;
66542;SDS011;53395;37.360;-122.046;2024-03-23T09:30:27;5.40;;;1.10;;
66542;SDS011;53395;37.360;-122.046;2024-03-23T09:33:12;4.85;;;1.15;;
66542;SDS011;53395;37.360;-122.046;2024-03-23T09:35:57;4.22;;;1.17;;
66542;SDS011;53395;37.360;-122.046;2024-03-23T09:38:42;5.47;;;1.40;;
66542;SDS011;53395;37.360;-122.046;2024-03-23T09:41:26;5.18;;;1.15;;
66542;SDS011;53395;37.360;-122.046;2024-03-23T09:44:11;3.97;;;1.23;;
66542;SDS011;53395;37.360;-122.046;2024-03-23T09:46:56;5.47;;;1.25;;
66542;SDS011;53395;37.360;-122.046;2024-03-23T09:49:41;4.55;;;1.48;;
66542;SDS011;53395;37.360;-122.046;2024-03-23T09:52:26;3.42;;;1.40;;
66542;SDS011;53395;37.360;-122.046;2024-03-23T09:55:11;3.17;;;1.13;;
66542;SDS011;53395;37.360;-122.046;2024-03-23T09:57:57;4.47;;;1.55;;
66542;SDS011;53395;37.360;-122.046;2024-03-23T10:00:42;4.35;;;1.30;;
66542;SDS011;53395;37.360;-122.046;2024-03-23T10:03:28;3.70;;;1.15;;
66542;SDS011;53395;37.360;-122.046;2024-03-23T10:06:13;5.65;;;1.25;;
66542;SDS011;53395;37.360;-122.046;2024-03-23T10:08:58;5.72;;;1.13;;
66542;SDS011;53395;37.360;-122.046;2024-03-23T10:11:42;4.85;;;1.80;;
66542;SDS011;53395;37.360;-122.046;2024-03-23T10:14:32;3.45;;;1.20;;
66542;SDS011;53395;37.360;-122.046;2024-03-23T10:17:18;6.85;;;1.23;;
66542;SDS011;53395;37.360;-122.046;2024-03-23T10:20:04;3.40;;;1.02;;
66542;SDS011;53395;37.360;-122.046;2024-03-23T10:22:55;4.47;;;0.98;;
66542;SDS011;53395;37.360;-122.046;2024-03-23T10:25:40;3.30;;;0.80;;
66542;SDS011;53395;37.360;-122.046;2024-03-23T10:28:25;3.05;;;1.00;;
66542;SDS011;53395;37.360;-122.046;2024-03-23T10:31:13;7.05;;;1.33;;
66542;SDS011;53395;37.360;-122.046;2024-03-23T10:33:57;5.88;;;1.08;;
66542;SDS011;53395;37.360;-122.046;2024-03-23T10:36:44;4.40;;;1.10;;
66542;SDS011;53395;37.360;-122.046;2024-03-23T10:39:38;3.08;;;0.95;;
66542;SDS011;53395;37.360;-122.046;2024-03-23T10:42:24;4.57;;;0.93;;
66542;SDS011;53395;37.360;-122.046;2024-03-23T10:45:09;3.30;;;0.95;;
66542;SDS011;53395;37.360;-122.046;2024-03-23T10:47:55;3.67;;;0.88;;
66542;SDS011;53395;37.360;-122.046;2024-03-23T10:50:40;3.88;;;0.95;;
66542;SDS011;53395;37.360;-122.046;2024-03-23T10:53:26;5.55;;;0.82;;
66542;SDS011;53395;37.360;-122.046;2024-03-23T10:56:11;4.03;;;0.82;;
66542;SDS011;53395;37.360;-122.046;2024-03-23T10:58:58;4.13;;;1.10;;
66542;SDS011;53395;37.360;-122.046;2024-03-23T11:01:55;6.95;;;1.27;;
66542;SDS011;53395;37.360;-122.046;2024-03-23T11:04:44;5.53;;;1.00;;
66542;SDS011;53395;37.360;-122.046;2024-03-23T11:07:31;8.07;;;1.27;;
66542;SDS011;53395;37.360;-122.046;2024-03-23T11:10:24;3.55;;;0.93;;
66542;SDS011;53395;37.360;-122.046;2024-03-23T11:13:23;5.50;;;1.10;;
66542;SDS011;53395;37.360;-122.046;2024-03-23T11:16:12;4.82;;;1.02;;
66542;SDS011;53395;37.360;-122.046;2024-03-23T11:22:42;5.55;;;1.33;;
66542;SDS011;53395;37.360;-122.046;2024-03-23T11:25:27;5.43;;;1.00;;
66542;SDS011;53395;37.360;-122.046;2024-03-23T11:30:58;4.25;;;1.00;;
66542;SDS011;53395;37.360;-122.046;2024-03-23T11:33:43;5.95;;;1.23;;
66542;SDS011;53395;37.360;-122.046;2024-03-23T11:36:28;5.18;;;1.20;;
66542;SDS011;53395;37.360;-122.046;2024-03-23T11:39:19;3.97;;;1.35;;
66542;SDS011;53395;37.360;-122.046;2024-03-23T11:44:49;5.38;;;1.20;;
66542;SDS011;53395;37.360;-122.046;2024-03-23T11:47:34;6.55;;;1.30;;
66542;SDS011;53395;37.360;-122.046;2024-03-23T11:50:19;4.03;;;1.17;;
66542;SDS011;53395;37.360;-122.046;2024-03-23T11:53:20;5.88;;;1.75;;
66542;SDS011;53395;37.360;-122.046;2024-03-23T11:56:07;7.22;;;1.40;;
66542;SDS011;53395;37.360;-122.046;2024-03-23T11:58:53;10.80;;;1.83;;
66542;SDS011;53395;37.360;-122.046;2024-03-23T12:01:37;5.35;;;1.40;;
66542;SDS011;53395;37.360;-122.046;2024-03-23T12:04:29;4.63;;;1.30;;
66542;SDS011;53395;37.360;-122.046;2024-03-23T12:07:15;5.82;;;1.50;;
66542;SDS011;53395;37.360;-122.046;2024-03-23T12:10:04;4.10;;;1.60;;
66542;SDS011;53395;37.360;-122.046;2024-03-23T12:13:00;9.38;;;1.58;;
66542;SDS011;53395;37.360;-122.046;2024-03-23T12:15:46;9.38;;;1.50;;
66542;SDS011;53395;37.360;-122.046;2024-03-23T12:18:31;5.13;;;1.20;;
66542;SDS011;53395;37.360;-122.046;2024-03-23T12:21:16;8.43;;;1.20;;
66542;SDS011;53395;37.360;-122.046;2024-03-23T12:24:02;5.65;;;1.48;;
66542;SDS011;53395;37.360;-122.046;2024-03-23T12:26:47;6.97;;;1.17;;
66542;SDS011;53395;37.360;-122.046;2024-03-23T12:29:34;5.68;;;1.40;;
66542;SDS011;53395;37.360;-122.046;2024-03-23T12:32:19;7.45;;;1.45;;
66542;SDS011;53395;37.360;-122.046;2024-03-23T12:35:04;5.75;;;1.10;;
66542;SDS011;53395;37.360;-122.046;2024-03-23T12:37:49;7.45;;;1.05;;
66542;SDS011;53395;37.360;-122.046;2024-03-23T12:40:34;6.10;;;1.00;;
66542;SDS011;53395;37.360;-122.046;2024-03-23T12:43:19;10.05;;;1.15;;
66542;SDS011;53395;37.360;-122.046;2024-03-23T12:46:03;9.02;;;1.23;;
66542;SDS011;53395;37.360;-122.046;2024-03-23T12:48:48;8.45;;;1.30;;
66542;SDS011;53395;37.360;-122.046;2024-03-23T12:51:33;5.80;;;1.02;;
66542;SDS011;53395;37.360;-122.046;2024-03-23T12:54:18;4.15;;;1.00;;
66542;SDS011;53395;37.360;-122.046;2024-03-23T12:57:03;7.72;;;1.33;;
66542;SDS011;53395;37.360;-122.046;2024-03-23T12:59:48;6.25;;;1.17;;
66542;SDS011;53395;37.360;-122.046;2024-03-23T13:02:34;8.60;;;1.45;;
66542;SDS011;53395;37.360;-122.046;2024-03-23T13:05:19;8.98;;;1.23;;
66542;SDS011;53395;37.360;-122.046;2024-03-23T13:08:04;7.72;;;1.40;;
66542;SDS011;53395;37.360;-122.046;2024-03-23T13:10:52;7.82;;;1.30;;
66542;SDS011;53395;37.360;-122.046;2024-03-23T13:13:37;5.70;;;1.20;;
66542;SDS011;53395;37.360;-122.046;2024-03-23T13:16:22;7.45;;;1.25;;
66542;SDS011;53395;37.360;-122.046;2024-03-23T13:19:08;12.27;;;1.40;;
66542;SDS011;53395;37.360;-122.046;2024-03-23T13:21:53;7.40;;;1.40;;
66542;SDS011;53395;37.360;-122.046;2024-03-23T13:24:39;12.38;;;1.17;;
66542;SDS011;53395;37.360;-122.046;2024-03-23T13:27:24;13.48;;;1.20;;
66542;SDS011;53395;37.360;-122.046;2024-03-23T13:30:08;5.38;;;0.90;;
66542;SDS011;53395;37.360;-122.046;2024-03-23T13:32:54;7.50;;;1.23;;
66542;SDS011;53395;37.360;-122.046;2024-03-23T13:35:39;6.50;;;1.17;;
66542;SDS011;53395;37.360;-122.046;2024-03-23T13:38:24;7.22;;;1.27;;
66542;SDS011;53395;37.360;-122.046;2024-03-23T13:41:09;8.00;;;1.73;;
66542;SDS011;53395;37.360;-122.046;2024-03-23T13:43:56;9.00;;;1.35;;
66542;SDS011;53395;37.360;-122.046;2024-03-23T13:46:41;6.88;;;1.40;;
66542;SDS011;53395;37.360;-122.046;2024-03-23T13:49:27;7.63;;;1.10;;
66542;SDS011;53395;37.360;-122.046;2024-03-23T13:52:13;6.97;;;1.40;;
66542;SDS011;53395;37.360;-122.046;2024-03-23T13:54:58;13.07;;;1.70;;
66542;SDS011;53395;37.360;-122.046;2024-03-23T13:57:43;10.07;;;1.45;;
66542;SDS011;53395;37.360;-122.046;2024-03-23T14:00:27;8.32;;;0.95;;
66542;SDS011;53395;37.360;-122.046;2024-03-23T14:03:12;7.63;;;1.15;;
66542;SDS011;53395;37.360;-122.046;2024-03-23T14:05:58;10.10;;;1.23;;
66542;SDS011;53395;37.360;-122.046;2024-03-23T14:08:45;7.45;;;1.08;;
66542;SDS011;53395;37.360;-122.046;2024-03-23T14:11:30;7.68;;;0.73;;
66542;SDS011;53395;37.360;-122.046;2024-03-23T14:14:15;6.35;;;1.00;;
66542;SDS011;53395;37.360;-122.046;2024-03-23T14:17:01;7.97;;;1.27;;
66542;SDS011;53395;37.360;-122.046;2024-03-23T14:19:46;5.95;;;0.90;;
66542;SDS011;53395;37.360;-122.046;2024-03-23T14:22:31;7.25;;;0.82;;
66542;SDS011;53395;37.360;-122.046;2024-03-23T14:25:16;4.10;;;1.05;;
66542;SDS011;53395;37.360;-122.046;2024-03-23T14:28:01;8.23;;;1.17;;
66542;SDS011;53395;37.360;-122.046;2024-03-23T14:30:46;6.70;;;1.23;;
66542;SDS011;53395;37.360;-122.046;2024-03-23T14:33:30;5.95;;;1.15;;
66542;SDS011;53395;37.360;-122.046;2024-03-23T14:36:17;7.40;;;1.20;;
66542;SDS011;53395;37.360;-122.046;2024-03-23T14:39:02;5.85;;;1.00;;
66542;SDS011;53395;37.360;-122.046;2024-03-23T14:41:47;5.78;;;1.17;;
66542;SDS011;53395;37.360;-122.046;2024-03-23T14:44:34;6.85;;;1.15;;
66542;SDS011;53395;37.360;-122.046;2024-03-23T14:47:19;9.82;;;1.48;;
66542;SDS011;53395;37.360;-122.046;2024-03-23T14:50:05;5.03;;;0.90;;
66542;SDS011;53395;37.360;-122.046;2024-03-23T14:52:52;4.85;;;1.02;;
66542;SDS011;53395;37.360;-122.046;2024-03-23T14:55:37;9.43;;;1.23;;
66542;SDS011;53395;37.360;-122.046;2024-03-23T14:58:21;5.60;;;1.00;;
66542;SDS011;53395;37.360;-122.046;2024-03-23T15:01:08;5.90;;;1.17;;
66542;SDS011;53395;37.360;-122.046;2024-03-23T15:03:53;10.93;;;1.83;;
66542;SDS011;53395;37.360;-122.046;2024-03-23T15:06:38;6.60;;;0.95;;
66542;SDS011;53395;37.360;-122.046;2024-03-23T15:09:22;5.80;;;1.00;;
66542;SDS011;53395;37.360;-122.046;2024-03-23T15:12:07;9.07;;;1.50;;
66542;SDS011;53395;37.360;-122.046;2024-03-23T15:14:52;5.18;;;0.90;;
66542;SDS011;53395;37.360;-122.046;2024-03-23T15:17:37;5.45;;;1.00;;
66542;SDS011;53395;37.360;-122.046;2024-03-23T15:20:25;9.55;;;1.27;;
66542;SDS011;53395;37.360;-122.046;2024-03-23T15:23:12;10.82;;;1.10;;
66542;SDS011;53395;37.360;-122.046;2024-03-23T15:25:58;6.43;;;0.85;;
66542;SDS011;53395;37.360;-122.046;2024-03-23T15:28:47;3.95;;;1.10;;
66542;SDS011;53395;37.360;-122.046;2024-03-23T15:31:41;6.97;;;1.25;;
66542;SDS011;53395;37.360;-122.046;2024-03-23T15:34:26;8.13;;;1.02;;
66542;SDS011;53395;37.360;-122.046;2024-03-23T15:37:12;15.07;;;1.48;;
66542;SDS011;53395;37.360;-122.046;2024-03-23T15:39:58;8.82;;;1.05;;
66542;SDS011;53395;37.360;-122.046;2024-03-23T15:42:43;7.00;;;1.23;;
66542;SDS011;53395;37.360;-122.046;2024-03-23T15:45:28;9.90;;;1.10;;
66542;SDS011;53395;37.360;-122.046;2024-03-23T15:48:13;8.48;;;1.38;;
66542;SDS011;53395;37.360;-122.046;2024-03-23T15:50:59;9.40;;;1.02;;
66542;SDS011;53395;37.360;-122.046;2024-03-23T15:53:46;5.47;;;0.77;;
66542;SDS011;53395;37.360;-122.046;2024-03-23T15:56:30;5.53;;;0.82;;
66542;SDS011;53395;37.360;-122.046;2024-03-23T15:59:16;5.82;;;0.90;;
66542;SDS011;53395;37.360;-122.046;2024-03-23T16:02:01;5.65;;;1.05;;
66542;SDS011;53395;37.360;-122.046;2024-03-23T16:07:33;10.57;;;1.38;;
66542;SDS011;53395;37.360;-122.046;2024-03-23T16:10:18;9.63;;;1.10;;
66542;SDS011;53395;37.360;-122.046;2024-03-23T16:13:03;7.80;;;1.30;;
66542;SDS011;53395;37.360;-122.046;2024-03-23T16:15:57;12.07;;;1.35;;
66542;SDS011;53395;37.360;-122.046;2024-03-23T16:18:43;8.43;;;1.20;;
66542;SDS011;53395;37.360;-122.046;2024-03-23T16:21:28;9.23;;;1.63;;
66542;SDS011;53395;37.360;-122.046;2024-03-23T16:24:13;5.15;;;0.98;;
66542;SDS011;53395;37.360;-122.046;2024-03-23T16:26:58;6.32;;;1.38;;
66542;SDS011;53395;37.360;-122.046;2024-03-23T16:29:42;4.93;;;0.77;;
66542;SDS011;53395;37.360;-122.046;2024-03-23T16:32:27;6.65;;;1.00;;
66542;SDS011;53395;37.360;-122.046;2024-03-23T16:35:13;8.57;;;1.17;;
66542;SDS011;53395;37.360;-122.046;2024-03-23T16:37:58;5.28;;;1.05;;
66542;SDS011;53395;37.360;-122.046;2024-03-23T16:40:52;9.38;;;1.33;;
66542;SDS011;53395;37.360;-122.046;2024-03-23T16:43:40;8.85;;;1.30;;
66542;SDS011;53395;37.360;-122.046;2024-03-23T16:46:26;7.15;;;0.80;;
66542;SDS011;53395;37.360;-122.046;2024-03-23T16:49:10;5.18;;;0.90;;
66542;SDS011;53395;37.360;-122.046;2024-03-23T16:51:55;5.78;;;0.80;;
66542;SDS011;53395;37.360;-122.046;2024-03-23T16:54:40;10.23;;;1.33;;
66542;SDS011;53395;37.360;-122.046;2024-03-23T16:57:25;5.30;;;0.75;;
66542;SDS011;53395;37.360;-122.046;2024-03-23T17:00:10;10.00;;;1.10;;
66542;SDS011;53395;37.360;-122.046;2024-03-23T17:02:56;8.50;;;1.00;;
66542;SDS011;53395;37.360;-122.046;2024-03-23T17:05:41;3.95;;;0.52;;
66542;SDS011;53395;37.360;-122.046;2024-03-23T17:08:26;4.78;;;0.80;;
66542;SDS011;53395;37.360;-122.046;2024-03-23T17:11:11;7.85;;;1.02;;
66542;SDS011;53395;37.360;-122.046;2024-03-23T17:13:56;4.43;;;0.90;;